Terminal Aerodrome Forecast
Issued by NWS St Louis, MO

Home | Current Version | Previous Version | Text Only | Print | Product List | Glossary Off
Versions: 1 2 3 4 5 6 7 8 9 10 11 12 13 14 15 16 17 18 19 20 21 22 23 24 25 26 27 28 29 30 31 32

520
FTUS43 KLSX 231737
TAFSTL
TAF
KSTL 231737Z 2318/2424 29009KT P6SM BKN150
     FM232200 28011G19KT P6SM BKN200
     FM240500 30013G20KT P6SM SCT070
     FM241500 30017G26KT P6SM BKN040=

USA.gov is the U.S. government's official web portal to all federal, state and local government web resources and services.